createdAt,value
2018-07-10T00:04:24.690Z,22.55
2018-07-10T00:09:07.566Z,22.41
2018-07-10T00:11:36.150Z,22.44
2018-07-10T00:14:04.741Z,22.35
2018-07-10T00:16:33.370Z,22.33
2018-07-10T00:19:01.981Z,22.30
2018-07-10T00:21:30.617Z,22.24
2018-07-10T00:23:59.220Z,22.36
2018-07-10T00:26:27.857Z,22.47
2018-07-10T00:28:56.514Z,22.34
2018-07-10T00:31:25.117Z,22.26
2018-07-10T00:33:53.940Z,22.19
2018-07-10T00:36:22.593Z,22.28
2018-07-10T00:39:01.853Z,22.36
2018-07-10T00:41:33.909Z,22.29
2018-07-10T00:44:03.328Z,22.15
2018-07-10T00:46:33.880Z,22.03
2018-07-10T00:49:02.642Z,21.94
2018-07-10T00:51:35.702Z,21.86
2018-07-10T00:54:04.421Z,22.11
2018-07-10T00:56:33.041Z,22.39
2018-07-10T00:59:04.659Z,22.33
2018-07-10T01:01:33.886Z,22.40
2018-07-10T01:04:02.544Z,22.30
2018-07-10T01:06:31.421Z,22.35
2018-07-10T01:09:00.022Z,22.30
2018-07-10T01:11:29.107Z,22.30
2018-07-10T01:13:57.797Z,22.26
2018-07-10T01:16:33.738Z,22.19
2018-07-10T01:19:04.593Z,22.17
2018-07-10T01:21:33.255Z,22.18
2018-07-10T01:24:04.046Z,22.08
2018-07-10T01:26:34.941Z,21.98
2018-07-10T01:29:09.760Z,21.89
2018-07-10T01:31:40.510Z,21.81
2018-07-10T01:34:09.143Z,21.72
2018-07-10T01:36:37.790Z,21.64
2018-07-10T01:39:06.945Z,21.57
2018-07-10T01:41:36.209Z,21.51
2018-07-10T01:44:04.908Z,21.43
2018-07-10T01:46:33.577Z,21.37
2018-07-10T01:49:02.353Z,21.34
2018-07-10T01:51:32.201Z,21.30
2018-07-10T01:54:00.905Z,21.24
2018-07-10T01:56:29.982Z,21.19
2018-07-10T01:58:58.759Z,21.15
2018-07-10T02:01:27.419Z,21.08
2018-07-10T02:03:57.551Z,21.05
2018-07-10T02:06:26.233Z,21.00
2018-07-10T02:08:55.091Z,21.00
2018-07-10T02:11:23.780Z,20.99
2018-07-10T02:13:52.427Z,20.94
2018-07-10T02:16:21.059Z,20.88
2018-07-10T02:18:49.894Z,20.79
2018-07-10T02:21:18.555Z,20.72
2018-07-10T02:23:47.419Z,20.69
2018-07-10T02:26:27.969Z,20.68
2018-07-10T02:28:57.128Z,20.67
2018-07-10T02:31:25.787Z,20.62
2018-07-10T02:33:54.757Z,20.58
2018-07-10T02:36:24.262Z,20.58
2018-07-10T02:38:58.200Z,20.53
2018-07-10T02:41:27.007Z,20.48
2018-07-10T02:43:59.965Z,20.43
2018-07-10T02:46:29.667Z,20.38
2018-07-10T02:49:02.953Z,20.33
2018-07-10T02:51:31.695Z,20.28
2018-07-10T02:54:00.390Z,20.24
2018-07-10T02:56:29.085Z,20.19
2018-07-10T02:59:01.695Z,20.14
2018-07-10T03:01:30.369Z,20.10
2018-07-10T03:03:59.820Z,20.06
2018-07-10T03:06:28.556Z,20.02
2018-07-10T03:08:57.417Z,20.03
2018-07-10T03:11:26.083Z,20.03
2018-07-10T03:13:54.716Z,20.00
2018-07-10T03:16:23.398Z,19.98
2018-07-10T03:18:52.214Z,19.99
2018-07-10T03:21:20.816Z,20.07
2018-07-10T03:23:49.456Z,20.10
2018-07-10T03:26:18.109Z,20.10
2018-07-10T03:28:46.749Z,20.09
2018-07-10T03:31:15.365Z,20.17
2018-07-10T03:33:44.087Z,20.20
2018-07-10T03:36:12.789Z,20.18
2018-07-10T03:38:42.163Z,20.19
2018-07-10T03:41:10.822Z,20.19
2018-07-10T03:43:39.481Z,20.23
2018-07-10T03:46:08.167Z,20.24
2018-07-10T03:48:36.805Z,20.32
2018-07-10T03:51:05.439Z,20.37
2018-07-10T03:53:34.114Z,20.44
2018-07-10T03:56:02.762Z,20.54
2018-07-10T03:58:31.498Z,20.63
2018-07-10T04:01:00.387Z,20.69
2018-07-10T04:03:32.210Z,20.79
2018-07-10T04:06:01.429Z,20.85
2018-07-10T04:08:30.566Z,20.95
2018-07-10T04:11:00.560Z,20.99
2018-07-10T04:13:29.213Z,21.04
2018-07-10T04:16:00.160Z,21.13
2018-07-10T04:18:29.969Z,21.23
2018-07-10T04:21:06.066Z,21.28
2018-07-10T04:23:36.320Z,21.37
2018-07-10T04:26:13.266Z,21.44
2018-07-10T04:28:42.124Z,21.52
2018-07-10T04:31:47.853Z,21.63
2018-07-10T04:34:16.605Z,21.81
2018-07-10T04:36:45.279Z,21.72
2018-07-10T04:39:13.936Z,21.83
2018-07-10T04:41:43.466Z,22.01
2018-07-10T04:44:13.705Z,22.19
2018-07-10T04:46:45.603Z,22.19
2018-07-10T04:49:36.062Z,22.35
2018-07-10T04:52:17.643Z,22.54
2018-07-10T04:54:56.251Z,22.66
2018-07-10T04:57:32.481Z,22.86
2018-07-10T05:00:05.022Z,23.00
2018-07-10T05:02:34.585Z,23.12
2018-07-10T05:05:03.259Z,23.22
2018-07-10T05:07:31.957Z,23.29
2018-07-10T05:10:00.775Z,23.33
2018-07-10T05:12:29.443Z,23.23
2018-07-10T05:14:58.148Z,23.18
2018-07-10T05:17:26.788Z,23.18
2018-07-10T05:19:56.118Z,23.27
2018-07-10T05:22:25.509Z,23.44
2018-07-10T05:24:54.264Z,23.45
2018-07-10T05:27:22.901Z,23.46
2018-07-10T05:29:51.801Z,23.48
2018-07-10T05:32:20.447Z,23.53
2018-07-10T05:34:49.120Z,23.55
2018-07-10T05:37:28.666Z,23.47
2018-07-10T05:39:58.682Z,23.37
2018-07-10T05:42:27.395Z,23.39
2018-07-10T05:44:56.056Z,23.28
2018-07-10T05:47:25.597Z,23.30
2018-07-10T05:49:57.938Z,23.31
2018-07-10T05:52:26.669Z,23.35
2018-07-10T05:54:55.571Z,23.57
2018-07-10T05:57:24.233Z,23.65
2018-07-10T05:59:52.911Z,23.74
2018-07-10T06:02:21.593Z,23.76
2018-07-10T06:04:50.257Z,23.79
2018-07-10T06:07:19.225Z,23.79
2018-07-10T06:09:47.867Z,23.77
2018-07-10T06:12:16.957Z,23.83
2018-07-10T06:14:45.594Z,23.94
2018-07-10T06:17:14.235Z,23.98
2018-07-10T06:19:43.031Z,24.01
2018-07-10T06:22:11.825Z,24.09
2018-07-10T06:24:40.452Z,24.17
2018-07-10T06:27:09.226Z,24.21
2018-07-10T06:30:02.979Z,24.29
2018-07-10T06:32:41.561Z,24.12
2018-07-10T06:35:10.281Z,24.12
2018-07-10T06:37:42.673Z,24.10
2018-07-10T06:40:11.301Z,24.31
2018-07-10T06:42:52.117Z,24.30
2018-07-10T06:45:20.854Z,24.29
2018-07-10T06:47:50.500Z,24.42
2018-07-10T06:50:21.924Z,24.45
2018-07-10T06:52:52.722Z,24.25
2018-07-10T06:55:21.316Z,24.31
2018-07-10T06:57:53.856Z,24.48
2018-07-10T07:00:22.545Z,24.68
2018-07-10T07:02:51.329Z,24.86
2018-07-10T07:05:20.237Z,25.12
2018-07-10T07:07:48.879Z,25.26
2018-07-10T07:10:17.960Z,25.54
2018-07-10T07:12:47.040Z,25.75
2018-07-10T07:15:20.437Z,25.83
2018-07-10T07:17:53.254Z,26.10
2018-07-10T07:20:22.809Z,26.40
2018-07-10T07:22:51.908Z,26.94
2018-07-10T07:25:20.567Z,27.28
2018-07-10T07:27:49.222Z,27.77
2018-07-10T07:30:18.046Z,28.01
2018-07-10T07:32:46.725Z,28.37
2018-07-10T07:35:15.421Z,28.59
2018-07-10T07:37:44.074Z,28.98
2018-07-10T07:40:13.245Z,29.05
2018-07-10T07:42:42.189Z,29.12
2018-07-10T07:45:10.944Z,29.24
2018-07-10T07:47:39.621Z,29.37
2018-07-10T07:50:08.238Z,29.39
2018-07-10T07:52:37.058Z,29.58
2018-07-10T07:55:05.753Z,29.56
2018-07-10T07:57:34.423Z,29.67
2018-07-10T08:00:03.109Z,29.62
2018-07-10T08:02:31.799Z,29.40
2018-07-10T08:05:00.533Z,29.14
2018-07-10T08:07:29.264Z,29.43
2018-07-10T08:09:58.570Z,29.35
2018-07-10T08:12:28.885Z,29.54
2018-07-10T08:14:57.994Z,29.96
2018-07-10T08:17:26.744Z,30.15
2018-07-10T08:19:57.017Z,30.55
2018-07-10T08:22:26.594Z,30.81
2018-07-10T08:37:46.454Z,31.69
2018-07-10T08:40:15.166Z,31.83
2018-07-10T08:42:43.964Z,31.78
2018-07-10T08:45:13.486Z,31.99
2018-07-10T08:47:42.349Z,31.63
2018-07-10T08:50:11.672Z,31.54
2018-07-10T08:52:40.463Z,31.40
2018-07-10T08:55:09.119Z,31.31
2018-07-10T08:57:37.810Z,31.31
2018-07-10T09:00:06.586Z,31.51
2018-07-10T09:02:35.316Z,31.78
2018-07-10T09:05:04.193Z,31.86
2018-07-10T09:07:32.932Z,31.91
2018-07-10T09:10:02.203Z,31.93
2018-07-10T09:12:30.863Z,32.06
2018-07-10T09:14:59.572Z,31.94
2018-07-10T09:17:28.766Z,32.20
2018-07-10T09:19:59.286Z,32.27
2018-07-10T09:22:27.998Z,32.22
2018-07-10T09:24:57.540Z,32.04
2018-07-10T09:27:26.204Z,32.28
2018-07-10T09:29:55.035Z,32.36
2018-07-10T09:32:29.683Z,32.20
2018-07-10T09:34:59.185Z,32.20
2018-07-10T09:37:35.451Z,32.35
2018-07-10T09:40:09.564Z,32.42
2018-07-10T09:42:43.817Z,32.46
2018-07-10T09:45:12.591Z,32.51
2018-07-10T09:47:41.330Z,32.38
2018-07-10T09:50:09.973Z,32.13
2018-07-10T09:52:38.613Z,32.31
2018-07-10T09:55:07.321Z,32.46
2018-07-10T09:57:35.993Z,32.44
2018-07-10T10:00:04.828Z,32.11
2018-07-10T10:02:34.753Z,32.01
2018-07-10T10:05:05.625Z,32.05
2018-07-10T10:07:34.311Z,32.06
2018-07-10T10:10:03.917Z,32.42
2018-07-10T10:12:33.044Z,32.65
2018-07-10T10:15:01.694Z,32.81
2018-07-10T10:17:31.255Z,32.71
2018-07-10T10:20:00.170Z,32.94
2018-07-10T10:22:30.973Z,33.33
2018-07-10T10:25:00.355Z,33.39
2018-07-10T10:27:30.019Z,33.30
2018-07-10T10:29:59.213Z,33.57
2018-07-10T10:32:27.989Z,33.83
2018-07-10T10:34:56.891Z,33.93
2018-07-10T10:37:25.535Z,33.96
2018-07-10T10:39:55.485Z,33.98
2018-07-10T10:42:24.736Z,33.92
2018-07-10T10:44:54.629Z,33.62
2018-07-10T10:47:24.241Z,33.36
2018-07-10T10:49:53.850Z,33.02
2018-07-10T10:52:22.584Z,32.48
2018-07-10T10:54:51.331Z,32.41
2018-07-10T10:57:20.058Z,32.19
2018-07-10T10:59:50.825Z,31.90
2018-07-10T11:02:20.085Z,31.55
2018-07-10T11:04:50.602Z,31.13
2018-07-10T11:07:19.721Z,30.67
2018-07-10T11:09:48.684Z,30.23
2018-07-10T11:12:17.327Z,29.80
2018-07-10T11:14:46.553Z,29.35
2018-07-10T11:17:21.291Z,28.82
2018-07-10T11:19:56.457Z,28.22
2018-07-10T11:22:25.185Z,27.58
2018-07-10T11:25:03.151Z,26.97
2018-07-10T11:27:43.690Z,26.32
2018-07-10T11:30:12.431Z,25.90
2018-07-10T11:32:41.155Z,25.73
2018-07-10T11:35:09.917Z,25.45
2018-07-10T11:37:39.102Z,24.87
2018-07-10T11:40:07.821Z,23.81
2018-07-10T11:42:37.092Z,23.45
2018-07-10T11:45:05.815Z,22.91
2018-07-10T11:47:34.882Z,22.27
2018-07-10T11:50:03.679Z,21.42
2018-07-10T11:52:32.461Z,21.10
2018-07-10T11:55:01.165Z,20.91
2018-07-10T11:57:29.925Z,20.71
2018-07-10T11:59:58.696Z,20.77
2018-07-10T12:02:41.498Z,20.66
2018-07-10T12:05:09.746Z,20.27
2018-07-10T12:07:39.717Z,20.23
2018-07-10T12:10:24.278Z,20.12
2018-07-10T12:12:53.671Z,19.91
2018-07-10T12:15:22.769Z,19.81
2018-07-10T12:17:53.714Z,20.16
2018-07-10T12:20:27.413Z,20.23
2018-07-10T12:22:56.126Z,20.14
2018-07-10T12:25:24.895Z,20.10
2018-07-10T12:27:53.758Z,20.22
2018-07-10T12:30:23.251Z,20.30
2018-07-10T12:32:51.969Z,20.34
2018-07-10T12:35:20.669Z,20.43
2018-07-10T12:37:49.359Z,20.45
2018-07-10T12:40:18.107Z,20.43
2018-07-10T12:42:46.842Z,20.28
2018-07-10T12:45:15.574Z,20.19
2018-07-10T12:47:44.276Z,20.06
2018-07-10T12:50:13.194Z,20.06
2018-07-10T12:52:41.913Z,20.08
2018-07-10T12:55:10.682Z,20.09
2018-07-10T12:57:42.468Z,20.14
2018-07-10T13:00:11.267Z,20.05
2018-07-10T13:02:43.924Z,20.12
2018-07-10T13:05:14.067Z,20.07
2018-07-10T13:07:42.838Z,20.13
2018-07-10T13:10:12.387Z,20.20
2018-07-10T13:12:41.099Z,20.21
2018-07-10T13:15:09.831Z,20.18
2018-07-10T13:17:43.639Z,20.19
2018-07-10T13:20:12.662Z,20.13
2018-07-10T13:22:41.310Z,19.96
2018-07-10T13:25:10.076Z,19.90
2018-07-10T13:27:38.713Z,19.82
2018-07-10T13:30:07.638Z,19.97
2018-07-10T13:32:37.357Z,19.87
2018-07-10T13:35:06.038Z,20.02
2018-07-10T13:37:36.816Z,19.96
2018-07-10T13:40:06.083Z,19.96
2018-07-10T13:42:47.038Z,20.09
2018-07-10T13:45:16.692Z,20.15
2018-07-10T13:47:45.355Z,20.06
2018-07-10T13:50:16.853Z,20.02
2018-07-10T13:52:45.857Z,20.07
2018-07-10T13:55:14.487Z,20.04
2018-07-10T13:58:16.338Z,19.89
2018-07-10T14:00:47.774Z,19.80
2018-07-10T14:03:16.516Z,19.87
2018-07-10T14:05:45.186Z,19.97
2018-07-10T14:08:13.862Z,19.93
2018-07-10T14:10:42.550Z,19.91
2018-07-10T14:13:11.246Z,19.98
2018-07-10T14:15:40.951Z,19.82
2018-07-10T14:18:09.715Z,19.85
2018-07-10T14:20:55.236Z,19.83
2018-07-10T14:23:23.945Z,19.73
2018-07-10T14:25:53.145Z,19.72
2018-07-10T14:28:21.948Z,19.81
2018-07-10T14:30:50.591Z,19.81
2018-07-10T14:33:19.581Z,19.77
2018-07-10T14:35:48.258Z,19.70
2018-07-10T14:38:23.910Z,19.57
2018-07-10T14:40:52.770Z,19.73
2018-07-10T14:43:27.481Z,19.59
2018-07-10T14:46:01.437Z,19.74
2018-07-10T14:48:33.846Z,19.69
2018-07-10T14:51:02.510Z,19.78
2018-07-10T14:53:31.179Z,19.96
2018-07-10T14:55:59.993Z,20.15
2018-07-10T14:58:28.653Z,20.02
2018-07-10T15:00:57.360Z,19.97
2018-07-10T15:03:26.084Z,20.03
2018-07-10T15:05:54.768Z,20.20
2018-07-10T15:08:23.477Z,20.10
2018-07-10T15:10:52.168Z,20.22
2018-07-10T15:13:20.813Z,20.19
2018-07-10T15:16:04.919Z,20.38
2018-07-10T15:18:39.456Z,20.13
2018-07-10T15:21:13.610Z,19.97
2018-07-10T15:23:42.395Z,19.93
2018-07-10T15:26:10.955Z,19.93
2018-07-10T15:28:39.650Z,19.72
2018-07-10T15:31:08.408Z,19.65
2018-07-10T15:33:37.014Z,19.50
2018-07-10T15:36:06.471Z,19.35
2018-07-10T15:38:35.334Z,19.35
2018-07-10T15:41:04.050Z,19.35
2018-07-10T15:43:32.757Z,19.31
2018-07-10T15:46:01.456Z,19.39
2018-07-10T15:48:30.099Z,19.33
2018-07-10T15:50:58.761Z,19.39
2018-07-10T15:53:27.586Z,19.40
2018-07-10T15:55:56.264Z,19.37
2018-07-10T15:58:24.904Z,19.40
2018-07-10T16:00:53.662Z,19.60
2018-07-10T16:03:22.416Z,19.69
2018-07-10T16:05:51.079Z,19.86
2018-07-10T16:08:20.729Z,20.15
2018-07-10T16:10:52.787Z,20.75
2018-07-10T16:13:22.410Z,20.80
2018-07-10T16:15:57.911Z,21.04
2018-07-10T16:18:28.645Z,20.95
2018-07-10T16:20:59.314Z,21.18
2018-07-10T16:23:28.309Z,21.78
2018-07-10T16:26:00.666Z,22.28
2018-07-10T16:28:29.187Z,22.59
2018-07-10T16:30:57.833Z,22.49
2018-07-10T16:33:32.682Z,22.27
2018-07-10T16:36:03.034Z,22.05
2018-07-10T16:38:31.948Z,22.04
2018-07-10T16:41:05.844Z,22.00
2018-07-10T16:43:34.646Z,21.90
2018-07-10T16:46:03.979Z,21.84
2018-07-10T16:48:47.953Z,21.90
2018-07-10T16:51:28.859Z,21.85
2018-07-10T16:54:00.823Z,21.75
2018-07-10T16:56:29.753Z,21.62
2018-07-10T16:58:59.121Z,21.41
2018-07-10T17:01:28.419Z,21.17
2018-07-10T17:03:58.856Z,21.02
2018-07-10T17:06:27.555Z,20.87
2018-07-10T17:08:56.354Z,20.77
2018-07-10T17:11:25.077Z,20.61
2018-07-10T17:13:53.819Z,20.49
2018-07-10T17:16:29.638Z,20.36
2018-07-10T17:18:58.493Z,20.19
2018-07-10T17:21:28.186Z,20.11
2018-07-10T17:23:57.927Z,19.89
2018-07-10T17:26:26.717Z,19.85
2018-07-10T17:28:55.559Z,19.68
2018-07-10T17:31:24.362Z,19.60
2018-07-10T17:33:53.237Z,19.54
2018-07-10T17:36:22.023Z,19.62
2018-07-10T17:38:50.945Z,19.48
2018-07-10T17:41:20.415Z,19.50
2018-07-10T17:43:49.774Z,19.52
2018-07-10T17:46:18.621Z,19.50
2018-07-10T17:48:47.710Z,19.43
2018-07-10T17:51:16.652Z,19.38
2018-07-10T17:53:45.536Z,19.37
2018-07-10T17:56:14.499Z,19.20
2018-07-10T17:58:43.178Z,19.16
2018-07-10T18:01:11.917Z,19.01
2018-07-10T18:03:41.357Z,19.03
2018-07-10T18:06:10.222Z,18.89
2018-07-10T18:08:39.072Z,18.89
2018-07-10T18:11:07.793Z,18.79
2018-07-10T18:13:36.554Z,18.82
2018-07-10T18:16:05.206Z,18.77
2018-07-10T18:18:34.039Z,18.75
2018-07-10T18:21:02.903Z,18.75
2018-07-10T18:23:31.755Z,18.76
2018-07-10T18:26:01.051Z,18.79
2018-07-10T18:28:30.004Z,18.78
2018-07-10T18:30:58.697Z,18.80
2018-07-10T18:33:27.375Z,18.79
2018-07-10T18:35:56.187Z,18.79
2018-07-10T18:38:24.920Z,18.76
2018-07-10T18:40:53.717Z,18.77
2018-07-10T18:43:22.731Z,18.76
2018-07-10T18:45:51.684Z,18.67
2018-07-10T18:48:25.552Z,18.60
2018-07-10T18:50:54.467Z,18.59
2018-07-10T18:53:23.280Z,18.53
2018-07-10T18:55:52.831Z,18.56
2018-07-10T18:58:26.660Z,18.45
2018-07-10T19:01:01.460Z,18.37
2018-07-10T19:03:31.759Z,18.33
2018-07-10T19:06:05.099Z,18.44
2018-07-10T19:08:34.032Z,18.38
2018-07-10T19:11:02.926Z,18.42
2018-07-10T19:13:31.771Z,18.37
2018-07-10T19:16:00.680Z,18.42
2018-07-10T19:18:29.506Z,18.32
2018-07-10T19:21:07.122Z,18.29
2018-07-10T19:23:45.515Z,18.22
2018-07-10T19:26:14.673Z,18.18
2018-07-10T19:28:43.589Z,18.13
2018-07-10T19:31:16.726Z,18.04
2018-07-10T19:33:49.470Z,18.13
2018-07-10T19:36:18.413Z,18.23
2018-07-10T19:38:47.397Z,18.21
2018-07-10T19:41:16.193Z,18.16
2018-07-10T19:43:45.016Z,18.05
2018-07-10T19:46:13.821Z,18.08
2018-07-10T19:48:46.629Z,18.09
2018-07-10T19:51:15.536Z,18.03
2018-07-10T19:53:47.220Z,17.95
2018-07-10T19:56:16.035Z,17.91
2018-07-10T19:58:45.464Z,17.82
2018-07-10T20:01:19.660Z,17.75
2018-07-10T20:04:03.480Z,17.76
2018-07-10T20:06:53.558Z,17.72
2018-07-10T20:09:22.508Z,17.70
2018-07-10T20:12:04.223Z,17.67
2018-07-10T20:14:40.190Z,17.67
2018-07-10T20:17:12.234Z,17.70
2018-07-10T20:19:49.375Z,17.68
2018-07-10T20:22:29.420Z,17.69
2018-07-10T20:25:08.657Z,17.67
2018-07-10T20:27:49.386Z,17.64
2018-07-10T20:31:28.050Z,17.62
2018-07-10T20:34:20.624Z,17.67
2018-07-10T20:36:54.081Z,17.68
2018-07-10T20:39:30.710Z,17.66
2018-07-10T20:41:59.430Z,17.64
2018-07-10T20:44:28.414Z,17.62
2018-07-10T20:47:02.630Z,17.59
2018-07-10T20:50:00.872Z,17.59
2018-07-10T20:52:45.669Z,17.58
2018-07-10T20:55:14.654Z,17.59
2018-07-10T20:58:05.281Z,17.57
2018-07-10T21:01:07.600Z,17.52
2018-07-10T21:03:49.149Z,17.47
2018-07-10T21:06:32.515Z,17.45
2018-07-10T21:09:11.404Z,17.45
2018-07-10T21:11:50.140Z,17.63
2018-07-10T21:14:25.660Z,17.58
2018-07-10T21:17:18.841Z,17.55
2018-07-10T21:22:03.243Z,17.53
2018-07-10T21:24:44.547Z,17.56
2018-07-10T21:27:16.629Z,17.55
2018-07-10T21:29:57.990Z,17.50
2018-07-10T21:33:04.889Z,17.47
2018-07-10T21:35:41.408Z,17.45
2018-07-10T21:38:18.161Z,17.44
2018-07-10T21:43:01.261Z,17.39
2018-07-10T21:45:43.195Z,17.34
2018-07-10T21:48:21.044Z,17.35
2018-07-10T21:50:53.354Z,17.35
2018-07-10T21:53:23.342Z,17.34
2018-07-10T21:55:52.023Z,17.32
2018-07-10T21:58:22.129Z,17.30
2018-07-10T22:02:01.838Z,17.30
2018-07-10T22:04:36.769Z,17.28
2018-07-10T22:07:06.226Z,17.27
2018-07-10T22:09:37.162Z,17.27
2018-07-10T22:12:11.073Z,17.25
2018-07-10T22:14:39.957Z,17.25
2018-07-10T22:17:14.343Z,17.30
2018-07-10T22:19:45.263Z,17.34
2018-07-10T22:22:15.763Z,17.31
2018-07-10T22:24:44.451Z,17.30
2018-07-10T22:27:14.350Z,17.32
2018-07-10T22:29:48.251Z,17.27
2018-07-10T22:32:22.191Z,17.23
2018-07-10T22:34:50.920Z,17.20
2018-07-10T22:37:19.635Z,17.16
2018-07-10T22:39:48.350Z,17.14
2018-07-10T22:42:17.031Z,17.13
2018-07-10T22:44:49.637Z,17.12
2018-07-10T22:47:22.800Z,17.18
2018-07-10T22:49:51.540Z,17.21
2018-07-10T22:52:20.363Z,17.21
2018-07-10T22:54:50.382Z,17.23
2018-07-10T22:57:19.081Z,17.21
2018-07-10T22:59:47.833Z,17.21
2018-07-10T23:02:19.443Z,17.16
2018-07-10T23:04:48.602Z,17.13
2018-07-10T23:07:17.391Z,17.14
2018-07-10T23:09:46.187Z,17.14
2018-07-10T23:12:14.939Z,17.17
2018-07-10T23:14:43.666Z,17.17
2018-07-10T23:17:12.431Z,17.16
2018-07-10T23:19:41.167Z,17.14
2018-07-10T23:22:09.850Z,17.13
2018-07-10T23:24:38.535Z,17.15
2018-07-10T23:27:07.350Z,17.16
2018-07-10T23:29:38.899Z,17.17
2018-07-10T23:32:07.804Z,17.18
2018-07-10T23:34:36.536Z,17.16
2018-07-10T23:37:09.795Z,17.11
2018-07-10T23:39:45.805Z,17.14
2018-07-10T23:42:29.447Z,17.15
2018-07-10T23:45:02.847Z,17.16
2018-07-10T23:47:33.158Z,17.15
2018-07-10T23:50:14.271Z,17.14
2018-07-10T23:54:49.383Z,17.13
2018-07-10T23:57:18.043Z,17.06
2018-07-10T23:59:46.749Z,17.06
